sensor_id;sensor_type;location;lat;lon;timestamp;P1;durP1;ratioP1;P2;durP2;ratioP2
23472;SDS011;11909;52.516;13.564;2022-07-01T00:01:47;9.88;;;8.85;;
23472;SDS011;11909;52.516;13.564;2022-07-01T00:04:14;10.00;;;8.98;;
23472;SDS011;11909;52.516;13.564;2022-07-01T00:06:41;10.75;;;9.75;;
23472;SDS011;11909;52.516;13.564;2022-07-01T00:09:09;11.27;;;9.00;;
23472;SDS011;11909;52.516;13.564;2022-07-01T00:11:36;11.27;;;10.07;;
23472;SDS011;11909;52.516;13.564;2022-07-01T00:14:02;11.10;;;10.00;;
23472;SDS011;11909;52.516;13.564;2022-07-01T00:16:29;10.50;;;9.48;;
23472;SDS011;11909;52.516;13.564;2022-07-01T00:18:55;12.80;;;9.38;;
23472;SDS011;11909;52.516;13.564;2022-07-01T00:21:22;11.43;;;10.20;;
23472;SDS011;11909;52.516;13.564;2022-07-01T00:23:48;11.40;;;10.05;;
23472;SDS011;11909;52.516;13.564;2022-07-01T00:26:16;12.40;;;10.52;;
23472;SDS011;11909;52.516;13.564;2022-07-01T00:28:43;11.88;;;10.57;;
23472;SDS011;11909;52.516;13.564;2022-07-01T00:31:09;12.15;;;10.95;;
23472;SDS011;11909;52.516;13.564;2022-07-01T00:33:36;12.00;;;10.80;;
23472;SDS011;11909;52.516;13.564;2022-07-01T00:36:02;12.30;;;11.00;;
23472;SDS011;11909;52.516;13.564;2022-07-01T00:38:29;12.55;;;11.25;;
23472;SDS011;11909;52.516;13.564;2022-07-01T00:40:55;12.10;;;10.90;;
23472;SDS011;11909;52.516;13.564;2022-07-01T00:43:23;12.95;;;11.13;;
23472;SDS011;11909;52.516;13.564;2022-07-01T00:45:50;11.27;;;10.18;;
23472;SDS011;11909;52.516;13.564;2022-07-01T00:48:18;13.02;;;11.80;;
23472;SDS011;11909;52.516;13.564;2022-07-01T00:50:45;12.98;;;11.63;;
23472;SDS011;11909;52.516;13.564;2022-07-01T00:53:12;13.40;;;11.98;;
23472;SDS011;11909;52.516;13.564;2022-07-01T00:55:40;15.57;;;12.45;;
23472;SDS011;11909;52.516;13.564;2022-07-01T00:58:06;12.43;;;11.07;;
23472;SDS011;11909;52.516;13.564;2022-07-01T01:00:34;12.90;;;11.60;;
23472;SDS011;11909;52.516;13.564;2022-07-01T01:03:04;13.38;;;11.90;;
23472;SDS011;11909;52.516;13.564;2022-07-01T01:05:31;14.15;;;11.65;;
23472;SDS011;11909;52.516;13.564;2022-07-01T01:07:57;13.82;;;12.13;;
23472;SDS011;11909;52.516;13.564;2022-07-01T01:10:24;14.43;;;12.93;;
23472;SDS011;11909;52.516;13.564;2022-07-01T01:12:52;13.32;;;11.98;;
23472;SDS011;11909;52.516;13.564;2022-07-01T01:15:20;13.30;;;12.00;;
23472;SDS011;11909;52.516;13.564;2022-07-01T01:17:48;14.40;;;12.50;;
23472;SDS011;11909;52.516;13.564;2022-07-01T01:20:17;14.63;;;13.13;;
23472;SDS011;11909;52.516;13.564;2022-07-01T01:22:46;14.43;;;12.93;;
23472;SDS011;11909;52.516;13.564;2022-07-01T01:25:13;13.20;;;11.88;;
23472;SDS011;11909;52.516;13.564;2022-07-01T01:27:40;14.20;;;12.80;;
23472;SDS011;11909;52.516;13.564;2022-07-01T01:30:07;15.57;;;13.55;;
23472;SDS011;11909;52.516;13.564;2022-07-01T01:32:36;14.82;;;13.32;;
23472;SDS011;11909;52.516;13.564;2022-07-01T01:35:03;15.68;;;14.00;;
23472;SDS011;11909;52.516;13.564;2022-07-01T01:37:30;15.45;;;13.70;;
23472;SDS011;11909;52.516;13.564;2022-07-01T01:39:58;15.07;;;13.50;;
23472;SDS011;11909;52.516;13.564;2022-07-01T01:42:25;16.30;;;13.23;;
23472;SDS011;11909;52.516;13.564;2022-07-01T01:44:51;15.63;;;14.02;;
23472;SDS011;11909;52.516;13.564;2022-07-01T01:47:19;18.40;;;15.05;;
23472;SDS011;11909;52.516;13.564;2022-07-01T01:49:45;15.38;;;13.75;;
23472;SDS011;11909;52.516;13.564;2022-07-01T01:52:12;16.52;;;14.82;;
23472;SDS011;11909;52.516;13.564;2022-07-01T01:54:38;15.65;;;14.05;;
23472;SDS011;11909;52.516;13.564;2022-07-01T01:57:06;17.00;;;14.20;;
23472;SDS011;11909;52.516;13.564;2022-07-01T01:59:33;16.38;;;14.77;;
23472;SDS011;11909;52.516;13.564;2022-07-01T02:02:00;15.65;;;14.07;;
23472;SDS011;11909;52.516;13.564;2022-07-01T02:04:26;16.60;;;15.00;;
23472;SDS011;11909;52.516;13.564;2022-07-01T02:06:53;17.10;;;15.30;;
23472;SDS011;11909;52.516;13.564;2022-07-01T02:09:19;16.17;;;14.57;;
23472;SDS011;11909;52.516;13.564;2022-07-01T02:11:46;16.85;;;15.15;;
23472;SDS011;11909;52.516;13.564;2022-07-01T02:14:14;16.83;;;14.80;;
23472;SDS011;11909;52.516;13.564;2022-07-01T02:16:40;17.58;;;15.60;;
23472;SDS011;11909;52.516;13.564;2022-07-01T02:19:07;18.48;;;15.05;;
23472;SDS011;11909;52.516;13.564;2022-07-01T02:21:33;15.70;;;14.07;;
23472;SDS011;11909;52.516;13.564;2022-07-01T02:24:00;16.60;;;14.90;;
23472;SDS011;11909;52.516;13.564;2022-07-01T02:26:26;16.88;;;15.18;;
23472;SDS011;11909;52.516;13.564;2022-07-01T02:28:53;16.33;;;14.63;;
23472;SDS011;11909;52.516;13.564;2022-07-01T02:31:20;18.15;;;15.40;;
23472;SDS011;11909;52.516;13.564;2022-07-01T02:33:47;17.95;;;15.60;;
23472;SDS011;11909;52.516;13.564;2022-07-01T02:36:14;18.25;;;16.27;;
23472;SDS011;11909;52.516;13.564;2022-07-01T02:38:40;17.77;;;15.98;;
23472;SDS011;11909;52.516;13.564;2022-07-01T02:41:07;17.67;;;15.88;;
23472;SDS011;11909;52.516;13.564;2022-07-01T02:43:35;17.67;;;15.82;;
23472;SDS011;11909;52.516;13.564;2022-07-01T02:46:01;17.55;;;15.75;;
23472;SDS011;11909;52.516;13.564;2022-07-01T02:48:29;18.77;;;16.52;;
23472;SDS011;11909;52.516;13.564;2022-07-01T02:50:56;19.25;;;16.33;;
23472;SDS011;11909;52.516;13.564;2022-07-01T02:53:22;19.10;;;16.88;;
23472;SDS011;11909;52.516;13.564;2022-07-01T02:55:49;17.65;;;15.80;;
23472;SDS011;11909;52.516;13.564;2022-07-01T02:58:16;19.65;;;16.17;;
23472;SDS011;11909;52.516;13.564;2022-07-01T03:00:43;18.05;;;16.15;;
23472;SDS011;11909;52.516;13.564;2022-07-01T03:03:09;21.65;;;18.30;;
23472;SDS011;11909;52.516;13.564;2022-07-01T03:05:37;20.17;;;17.88;;
23472;SDS011;11909;52.516;13.564;2022-07-01T03:08:04;20.55;;;18.02;;
23472;SDS011;11909;52.516;13.564;2022-07-01T03:10:30;21.02;;;18.60;;
23472;SDS011;11909;52.516;13.564;2022-07-01T03:12:57;19.67;;;17.58;;
23472;SDS011;11909;52.516;13.564;2022-07-01T03:15:24;20.35;;;18.02;;
23472;SDS011;11909;52.516;13.564;2022-07-01T03:17:50;19.08;;;17.02;;
23472;SDS011;11909;52.516;13.564;2022-07-01T03:20:17;19.83;;;17.73;;
23472;SDS011;11909;52.516;13.564;2022-07-01T03:22:45;19.85;;;16.90;;
23472;SDS011;11909;52.516;13.564;2022-07-01T03:25:12;19.42;;;17.27;;
23472;SDS011;11909;52.516;13.564;2022-07-01T03:27:39;18.92;;;17.00;;
23472;SDS011;11909;52.516;13.564;2022-07-01T03:30:10;20.02;;;17.92;;
23472;SDS011;11909;52.516;13.564;2022-07-01T03:32:38;18.02;;;16.23;;
23472;SDS011;11909;52.516;13.564;2022-07-01T03:35:04;18.40;;;15.95;;
23472;SDS011;11909;52.516;13.564;2022-07-01T03:37:52;20.58;;;18.35;;
23472;SDS011;11909;52.516;13.564;2022-07-01T03:40:20;19.88;;;17.83;;
23472;SDS011;11909;52.516;13.564;2022-07-01T03:42:47;21.67;;;19.10;;
23472;SDS011;11909;52.516;13.564;2022-07-01T03:45:14;19.52;;;17.42;;
23472;SDS011;11909;52.516;13.564;2022-07-01T03:47:44;20.33;;;17.58;;
23472;SDS011;11909;52.516;13.564;2022-07-01T03:50:11;19.38;;;17.38;;
23472;SDS011;11909;52.516;13.564;2022-07-01T03:52:37;20.00;;;17.90;;
23472;SDS011;11909;52.516;13.564;2022-07-01T03:55:07;20.20;;;18.15;;
23472;SDS011;11909;52.516;13.564;2022-07-01T03:57:33;22.15;;;18.75;;
23472;SDS011;11909;52.516;13.564;2022-07-01T03:59:59;19.23;;;17.23;;
23472;SDS011;11909;52.516;13.564;2022-07-01T04:02:26;19.23;;;17.23;;
23472;SDS011;11909;52.516;13.564;2022-07-01T04:04:52;22.40;;;18.70;;
23472;SDS011;11909;52.516;13.564;2022-07-01T04:07:20;17.90;;;16.10;;
23472;SDS011;11909;52.516;13.564;2022-07-01T04:09:46;18.85;;;16.85;;
23472;SDS011;11909;52.516;13.564;2022-07-01T04:12:15;20.20;;;18.10;;
23472;SDS011;11909;52.516;13.564;2022-07-01T04:14:42;22.05;;;17.85;;
23472;SDS011;11909;52.516;13.564;2022-07-01T04:17:08;22.35;;;19.05;;
23472;SDS011;11909;52.516;13.564;2022-07-01T04:19:35;20.92;;;18.15;;
23472;SDS011;11909;52.516;13.564;2022-07-01T04:22:02;23.90;;;19.77;;
23472;SDS011;11909;52.516;13.564;2022-07-01T04:24:46;23.05;;;19.75;;
23472;SDS011;11909;52.516;13.564;2022-07-01T04:27:13;20.77;;;17.83;;
23472;SDS011;11909;52.516;13.564;2022-07-01T04:29:40;23.33;;;18.83;;
23472;SDS011;11909;52.516;13.564;2022-07-01T04:32:07;19.23;;;17.30;;
23472;SDS011;11909;52.516;13.564;2022-07-01T04:34:33;21.05;;;18.23;;
23472;SDS011;11909;52.516;13.564;2022-07-01T04:37:00;25.30;;;18.90;;
23472;SDS011;11909;52.516;13.564;2022-07-01T04:39:27;21.08;;;18.48;;
23472;SDS011;11909;52.516;13.564;2022-07-01T04:41:54;24.50;;;20.02;;
23472;SDS011;11909;52.516;13.564;2022-07-01T04:44:28;22.63;;;19.00;;
23472;SDS011;11909;52.516;13.564;2022-07-01T04:46:55;23.48;;;19.90;;
23472;SDS011;11909;52.516;13.564;2022-07-01T04:49:21;22.42;;;20.02;;
23472;SDS011;11909;52.516;13.564;2022-07-01T04:51:48;21.83;;;19.27;;
23472;SDS011;11909;52.516;13.564;2022-07-01T04:54:14;23.08;;;20.20;;
23472;SDS011;11909;52.516;13.564;2022-07-01T04:56:41;22.73;;;19.70;;
23472;SDS011;11909;52.516;13.564;2022-07-01T04:59:08;23.75;;;19.60;;
23472;SDS011;11909;52.516;13.564;2022-07-01T05:01:36;24.05;;;20.85;;
23472;SDS011;11909;52.516;13.564;2022-07-01T05:04:02;24.10;;;20.92;;
23472;SDS011;11909;52.516;13.564;2022-07-01T05:06:29;23.38;;;20.77;;
23472;SDS011;11909;52.516;13.564;2022-07-01T05:08:55;24.55;;;20.85;;
23472;SDS011;11909;52.516;13.564;2022-07-01T05:11:22;23.10;;;19.50;;
23472;SDS011;11909;52.516;13.564;2022-07-01T05:13:48;21.65;;;19.40;;
23472;SDS011;11909;52.516;13.564;2022-07-01T05:16:15;25.40;;;19.95;;
23472;SDS011;11909;52.516;13.564;2022-07-01T05:18:43;27.70;;;21.75;;
23472;SDS011;11909;52.516;13.564;2022-07-01T05:21:27;23.23;;;19.50;;
23472;SDS011;11909;52.516;13.564;2022-07-01T05:24:11;23.40;;;20.25;;
23472;SDS011;11909;52.516;13.564;2022-07-01T05:26:38;22.10;;;19.80;;
23472;SDS011;11909;52.516;13.564;2022-07-01T05:29:04;24.10;;;19.88;;
23472;SDS011;11909;52.516;13.564;2022-07-01T05:31:31;22.27;;;19.80;;
23472;SDS011;11909;52.516;13.564;2022-07-01T05:33:59;24.60;;;19.75;;
23472;SDS011;11909;52.516;13.564;2022-07-01T05:36:26;26.77;;;19.52;;
23472;SDS011;11909;52.516;13.564;2022-07-01T05:38:52;21.58;;;18.27;;
23472;SDS011;11909;52.516;13.564;2022-07-01T05:41:19;23.73;;;20.20;;
23472;SDS011;11909;52.516;13.564;2022-07-01T05:43:45;24.42;;;19.38;;
23472;SDS011;11909;52.516;13.564;2022-07-01T05:46:11;23.33;;;19.10;;
23472;SDS011;11909;52.516;13.564;2022-07-01T05:48:38;22.52;;;18.67;;
23472;SDS011;11909;52.516;13.564;2022-07-01T05:51:06;25.98;;;19.75;;
23472;SDS011;11909;52.516;13.564;2022-07-01T05:53:32;22.67;;;19.00;;
23472;SDS011;11909;52.516;13.564;2022-07-01T05:55:59;20.75;;;18.17;;
23472;SDS011;11909;52.516;13.564;2022-07-01T05:58:25;21.67;;;18.13;;
23472;SDS011;11909;52.516;13.564;2022-07-01T06:00:52;24.60;;;17.52;;
23472;SDS011;11909;52.516;13.564;2022-07-01T06:03:18;23.38;;;17.50;;
23472;SDS011;11909;52.516;13.564;2022-07-01T06:05:44;20.40;;;17.08;;
23472;SDS011;11909;52.516;13.564;2022-07-01T06:08:12;25.13;;;17.40;;
23472;SDS011;11909;52.516;13.564;2022-07-01T06:10:39;24.55;;;18.73;;
23472;SDS011;11909;52.516;13.564;2022-07-01T06:13:05;21.02;;;16.85;;
23472;SDS011;11909;52.516;13.564;2022-07-01T06:15:32;20.00;;;16.35;;
23472;SDS011;11909;52.516;13.564;2022-07-01T06:17:58;31.25;;;27.30;;
23472;SDS011;11909;52.516;13.564;2022-07-01T06:20:25;20.50;;;16.30;;
23472;SDS011;11909;52.516;13.564;2022-07-01T06:22:52;21.17;;;16.38;;
23472;SDS011;11909;52.516;13.564;2022-07-01T06:25:20;17.67;;;15.68;;
23472;SDS011;11909;52.516;13.564;2022-07-01T06:27:46;49.63;;;34.33;;
23472;SDS011;11909;52.516;13.564;2022-07-01T06:30:13;49.40;;;35.60;;
23472;SDS011;11909;52.516;13.564;2022-07-01T06:32:40;30.95;;;24.33;;
23472;SDS011;11909;52.516;13.564;2022-07-01T06:35:07;23.70;;;19.83;;
23472;SDS011;11909;52.516;13.564;2022-07-01T06:37:34;19.75;;;16.58;;
23472;SDS011;11909;52.516;13.564;2022-07-01T06:40:02;20.02;;;16.45;;
23472;SDS011;11909;52.516;13.564;2022-07-01T06:42:30;18.35;;;16.50;;
23472;SDS011;11909;52.516;13.564;2022-07-01T06:44:57;19.88;;;16.50;;
23472;SDS011;11909;52.516;13.564;2022-07-01T06:47:23;17.02;;;15.27;;
23472;SDS011;11909;52.516;13.564;2022-07-01T06:49:50;18.77;;;16.77;;
23472;SDS011;11909;52.516;13.564;2022-07-01T06:52:16;20.35;;;15.77;;
23472;SDS011;11909;52.516;13.564;2022-07-01T06:54:43;18.40;;;15.35;;
23472;SDS011;11909;52.516;13.564;2022-07-01T06:57:09;20.88;;;17.75;;
23472;SDS011;11909;52.516;13.564;2022-07-01T06:59:38;41.55;;;32.90;;
23472;SDS011;11909;52.516;13.564;2022-07-01T07:02:04;26.20;;;20.05;;
23472;SDS011;11909;52.516;13.564;2022-07-01T07:04:32;24.20;;;20.20;;
23472;SDS011;11909;52.516;13.564;2022-07-01T07:06:59;23.65;;;18.45;;
23472;SDS011;11909;52.516;13.564;2022-07-01T07:09:25;18.90;;;16.65;;
23472;SDS011;11909;52.516;13.564;2022-07-01T07:11:52;20.10;;;16.63;;
23472;SDS011;11909;52.516;13.564;2022-07-01T07:14:18;21.10;;;17.13;;
23472;SDS011;11909;52.516;13.564;2022-07-01T07:16:46;20.27;;;17.73;;
23472;SDS011;11909;52.516;13.564;2022-07-01T07:19:13;18.98;;;16.75;;
23472;SDS011;11909;52.516;13.564;2022-07-01T07:21:39;21.35;;;16.67;;
23472;SDS011;11909;52.516;13.564;2022-07-01T07:24:06;22.50;;;17.63;;
23472;SDS011;11909;52.516;13.564;2022-07-01T07:26:33;20.90;;;17.85;;
23472;SDS011;11909;52.516;13.564;2022-07-01T07:28:59;20.38;;;17.10;;
23472;SDS011;11909;52.516;13.564;2022-07-01T07:31:26;19.35;;;17.27;;
23472;SDS011;11909;52.516;13.564;2022-07-01T07:33:53;26.33;;;20.25;;
23472;SDS011;11909;52.516;13.564;2022-07-01T07:36:20;30.25;;;23.83;;
23472;SDS011;11909;52.516;13.564;2022-07-01T07:38:47;21.38;;;17.70;;
23472;SDS011;11909;52.516;13.564;2022-07-01T07:41:13;22.10;;;17.73;;
23472;SDS011;11909;52.516;13.564;2022-07-01T07:43:40;20.30;;;16.98;;
23472;SDS011;11909;52.516;13.564;2022-07-01T07:46:06;18.95;;;16.83;;
23472;SDS011;11909;52.516;13.564;2022-07-01T07:48:33;18.98;;;16.98;;
23472;SDS011;11909;52.516;13.564;2022-07-01T07:51:01;18.75;;;16.70;;
23472;SDS011;11909;52.516;13.564;2022-07-01T07:53:27;19.58;;;16.38;;
23472;SDS011;11909;52.516;13.564;2022-07-01T07:55:54;20.20;;;15.40;;
23472;SDS011;11909;52.516;13.564;2022-07-01T07:58:20;20.95;;;15.02;;
23472;SDS011;11909;52.516;13.564;2022-07-01T08:00:47;17.63;;;14.80;;
23472;SDS011;11909;52.516;13.564;2022-07-01T08:03:13;17.23;;;13.48;;
23472;SDS011;11909;52.516;13.564;2022-07-01T08:05:40;16.95;;;13.93;;
23472;SDS011;11909;52.516;13.564;2022-07-01T08:08:08;18.67;;;13.65;;
23472;SDS011;11909;52.516;13.564;2022-07-01T08:10:34;16.35;;;13.75;;
23472;SDS011;11909;52.516;13.564;2022-07-01T08:13:01;17.98;;;14.07;;
23472;SDS011;11909;52.516;13.564;2022-07-01T08:15:29;24.92;;;21.10;;
23472;SDS011;11909;52.516;13.564;2022-07-01T08:17:56;44.15;;;35.20;;
23472;SDS011;11909;52.516;13.564;2022-07-01T08:20:22;61.83;;;46.80;;
23472;SDS011;11909;52.516;13.564;2022-07-01T08:22:49;31.70;;;24.67;;
23472;SDS011;11909;52.516;13.564;2022-07-01T08:25:17;20.88;;;17.33;;
23472;SDS011;11909;52.516;13.564;2022-07-01T08:27:44;17.00;;;14.65;;
23472;SDS011;11909;52.516;13.564;2022-07-01T08:30:11;16.10;;;14.25;;
23472;SDS011;11909;52.516;13.564;2022-07-01T08:32:38;18.20;;;14.43;;
23472;SDS011;11909;52.516;13.564;2022-07-01T08:35:04;16.35;;;14.05;;
23472;SDS011;11909;52.516;13.564;2022-07-01T08:37:31;14.88;;;12.77;;
23472;SDS011;11909;52.516;13.564;2022-07-01T08:39:58;13.95;;;12.38;;
23472;SDS011;11909;52.516;13.564;2022-07-01T08:42:26;14.75;;;11.65;;
23472;SDS011;11909;52.516;13.564;2022-07-01T08:44:53;15.82;;;14.13;;
23472;SDS011;11909;52.516;13.564;2022-07-01T08:47:19;17.88;;;15.07;;
23472;SDS011;11909;52.516;13.564;2022-07-01T08:49:46;16.75;;;13.32;;
23472;SDS011;11909;52.516;13.564;2022-07-01T08:52:12;15.80;;;11.27;;
23472;SDS011;11909;52.516;13.564;2022-07-01T08:54:39;14.77;;;10.30;;
23472;SDS011;11909;52.516;13.564;2022-07-01T08:57:06;12.10;;;9.60;;
23472;SDS011;11909;52.516;13.564;2022-07-01T08:59:34;32.58;;;23.08;;
23472;SDS011;11909;52.516;13.564;2022-07-01T09:02:01;15.25;;;11.80;;
23472;SDS011;11909;52.516;13.564;2022-07-01T09:04:29;14.48;;;10.43;;
23472;SDS011;11909;52.516;13.564;2022-07-01T09:07:00;13.10;;;10.20;;
23472;SDS011;11909;52.516;13.564;2022-07-01T09:09:33;10.10;;;9.10;;
23472;SDS011;11909;52.516;13.564;2022-07-01T09:12:01;12.57;;;9.63;;
23472;SDS011;11909;52.516;13.564;2022-07-01T09:14:30;10.38;;;9.25;;
23472;SDS011;11909;52.516;13.564;2022-07-01T09:16:59;16.88;;;9.77;;
23472;SDS011;11909;52.516;13.564;2022-07-01T09:19:27;12.37;;;10.17;;
23472;SDS011;11909;52.516;13.564;2022-07-01T09:21:55;12.32;;;9.32;;
23472;SDS011;11909;52.516;13.564;2022-07-01T09:24:26;13.95;;;10.65;;
23472;SDS011;11909;52.516;13.564;2022-07-01T09:26:55;17.15;;;9.80;;
23472;SDS011;11909;52.516;13.564;2022-07-01T09:29:30;13.90;;;9.95;;
23472;SDS011;11909;52.516;13.564;2022-07-01T09:32:00;13.52;;;9.82;;
23472;SDS011;11909;52.516;13.564;2022-07-01T09:34:32;10.73;;;9.70;;
23472;SDS011;11909;52.516;13.564;2022-07-01T09:36:58;12.07;;;9.00;;
23472;SDS011;11909;52.516;13.564;2022-07-01T09:39:25;11.48;;;9.50;;
23472;SDS011;11909;52.516;13.564;2022-07-01T09:41:53;11.98;;;9.40;;
23472;SDS011;11909;52.516;13.564;2022-07-01T09:44:20;34.65;;;27.63;;
23472;SDS011;11909;52.516;13.564;2022-07-01T09:46:54;12.20;;;10.88;;
23472;SDS011;11909;52.516;13.564;2022-07-01T09:49:23;11.82;;;4.68;;
23472;SDS011;11909;52.516;13.564;2022-07-01T09:51:50;13.60;;;3.78;;
23472;SDS011;11909;52.516;13.564;2022-07-01T09:54:17;4.50;;;2.53;;
23472;SDS011;11909;52.516;13.564;2022-07-01T09:56:44;4.72;;;2.40;;
23472;SDS011;11909;52.516;13.564;2022-07-01T09:59:10;6.32;;;2.58;;
23472;SDS011;11909;52.516;13.564;2022-07-01T10:01:37;15.75;;;9.02;;
23472;SDS011;11909;52.516;13.564;2022-07-01T10:04:06;3.38;;;1.88;;
23472;SDS011;11909;52.516;13.564;2022-07-01T10:06:45;10.85;;;1.70;;
23472;SDS011;11909;52.516;13.564;2022-07-01T10:09:26;12.18;;;1.40;;
23472;SDS011;11909;52.516;13.564;2022-07-01T10:12:12;1.75;;;1.25;;
23472;SDS011;11909;52.516;13.564;2022-07-01T10:14:58;7.93;;;1.50;;
23472;SDS011;11909;52.516;13.564;2022-07-01T10:17:26;15.45;;;10.05;;
23472;SDS011;11909;52.516;13.564;2022-07-01T10:19:54;2.05;;;1.50;;
23472;SDS011;11909;52.516;13.564;2022-07-01T10:22:27;5.90;;;1.30;;
23472;SDS011;11909;52.516;13.564;2022-07-01T10:24:54;2.33;;;1.20;;
23472;SDS011;11909;52.516;13.564;2022-07-01T10:27:22;2.92;;;1.20;;
23472;SDS011;11909;52.516;13.564;2022-07-01T10:30:06;1.58;;;1.33;;
23472;SDS011;11909;52.516;13.564;2022-07-01T10:32:41;3.20;;;1.23;;
23472;SDS011;11909;52.516;13.564;2022-07-01T10:35:08;3.00;;;1.20;;
23472;SDS011;11909;52.516;13.564;2022-07-01T10:37:37;1.10;;;1.08;;
23472;SDS011;11909;52.516;13.564;2022-07-01T10:40:32;3.97;;;1.20;;
23472;SDS011;11909;52.516;13.564;2022-07-01T10:43:06;2.65;;;1.02;;
23472;SDS011;11909;52.516;13.564;2022-07-01T10:45:40;1.73;;;1.15;;
23472;SDS011;11909;52.516;13.564;2022-07-01T10:48:17;1.75;;;1.23;;
23472;SDS011;11909;52.516;13.564;2022-07-01T10:50:45;2.22;;;1.25;;
23472;SDS011;11909;52.516;13.564;2022-07-01T10:53:14;3.28;;;1.65;;
23472;SDS011;11909;52.516;13.564;2022-07-01T10:55:42;2.83;;;1.50;;
23472;SDS011;11909;52.516;13.564;2022-07-01T10:58:11;2.40;;;1.67;;
23472;SDS011;11909;52.516;13.564;2022-07-01T11:00:40;3.90;;;1.83;;
23472;SDS011;11909;52.516;13.564;2022-07-01T11:03:09;1.95;;;1.63;;
23472;SDS011;11909;52.516;13.564;2022-07-01T11:05:40;6.03;;;1.30;;
23472;SDS011;11909;52.516;13.564;2022-07-01T11:08:08;11.82;;;8.60;;
23472;SDS011;11909;52.516;13.564;2022-07-01T11:10:38;4.38;;;2.47;;
23472;SDS011;11909;52.516;13.564;2022-07-01T11:13:05;3.78;;;1.20;;
23472;SDS011;11909;52.516;13.564;2022-07-01T11:15:33;3.70;;;1.00;;
23472;SDS011;11909;52.516;13.564;2022-07-01T11:17:59;1.98;;;1.20;;
23472;SDS011;11909;52.516;13.564;2022-07-01T11:20:27;1.52;;;1.00;;
23472;SDS011;11909;52.516;13.564;2022-07-01T11:22:56;4.23;;;1.10;;
23472;SDS011;11909;52.516;13.564;2022-07-01T11:25:22;4.57;;;1.17;;
23472;SDS011;11909;52.516;13.564;2022-07-01T11:27:51;3.40;;;0.57;;
23472;SDS011;11909;52.516;13.564;2022-07-01T11:30:18;1.40;;;0.50;;
23472;SDS011;11909;52.516;13.564;2022-07-01T11:32:47;2.00;;;0.50;;
23472;SDS011;11909;52.516;13.564;2022-07-01T11:35:16;2.17;;;0.50;;
23472;SDS011;11909;52.516;13.564;2022-07-01T11:38:04;1.58;;;0.73;;
23472;SDS011;11909;52.516;13.564;2022-07-01T11:40:52;3.85;;;0.50;;
23472;SDS011;11909;52.516;13.564;2022-07-01T11:43:22;3.92;;;0.70;;
23472;SDS011;11909;52.516;13.564;2022-07-01T11:45:50;0.90;;;0.43;;
23472;SDS011;11909;52.516;13.564;2022-07-01T11:48:29;1.00;;;0.50;;
23472;SDS011;11909;52.516;13.564;2022-07-01T11:50:57;1.85;;;0.60;;
23472;SDS011;11909;52.516;13.564;2022-07-01T11:53:25;2.10;;;0.80;;
23472;SDS011;11909;52.516;13.564;2022-07-01T11:55:52;1.80;;;0.70;;
23472;SDS011;11909;52.516;13.564;2022-07-01T11:58:18;3.33;;;0.60;;
23472;SDS011;11909;52.516;13.564;2022-07-01T12:00:46;0.70;;;0.55;;
23472;SDS011;11909;52.516;13.564;2022-07-01T12:03:12;1.15;;;0.52;;
23472;SDS011;11909;52.516;13.564;2022-07-01T12:05:39;1.65;;;0.50;;
23472;SDS011;11909;52.516;13.564;2022-07-01T12:08:06;3.60;;;0.77;;
23472;SDS011;11909;52.516;13.564;2022-07-01T12:10:32;0.77;;;0.73;;
23472;SDS011;11909;52.516;13.564;2022-07-01T12:12:59;3.20;;;0.60;;
23472;SDS011;11909;52.516;13.564;2022-07-01T12:15:26;1.38;;;0.40;;
23472;SDS011;11909;52.516;13.564;2022-07-01T12:18:05;0.82;;;0.40;;
23472;SDS011;11909;52.516;13.564;2022-07-01T12:20:32;1.27;;;0.60;;
23472;SDS011;11909;52.516;13.564;2022-07-01T12:23:10;1.58;;;0.60;;
23472;SDS011;11909;52.516;13.564;2022-07-01T12:25:37;0.55;;;0.52;;
23472;SDS011;11909;52.516;13.564;2022-07-01T12:28:04;1.23;;;1.02;;
23472;SDS011;11909;52.516;13.564;2022-07-01T12:30:30;1.60;;;0.80;;
23472;SDS011;11909;52.516;13.564;2022-07-01T12:32:58;2.15;;;0.90;;
23472;SDS011;11909;52.516;13.564;2022-07-01T12:35:36;2.70;;;1.20;;
23472;SDS011;11909;52.516;13.564;2022-07-01T12:38:14;3.42;;;1.30;;
23472;SDS011;11909;52.516;13.564;2022-07-01T12:40:41;1.83;;;1.30;;
23472;SDS011;11909;52.516;13.564;2022-07-01T12:43:21;1.60;;;1.50;;
23472;SDS011;11909;52.516;13.564;2022-07-01T12:48:16;5.07;;;2.10;;
23472;SDS011;11909;52.516;13.564;2022-07-01T12:50:42;2.35;;;1.90;;
23472;SDS011;11909;52.516;13.564;2022-07-01T12:53:11;2.00;;;1.80;;
23472;SDS011;11909;52.516;13.564;2022-07-01T12:55:43;3.55;;;2.28;;
23472;SDS011;11909;52.516;13.564;2022-07-01T12:58:11;2.88;;;2.20;;
23472;SDS011;11909;52.516;13.564;2022-07-01T13:00:41;2.50;;;2.30;;
23472;SDS011;11909;52.516;13.564;2022-07-01T13:03:09;2.22;;;1.98;;
23472;SDS011;11909;52.516;13.564;2022-07-01T13:05:37;3.17;;;2.85;;
23472;SDS011;11909;52.516;13.564;2022-07-01T13:08:05;3.83;;;2.83;;
23472;SDS011;11909;52.516;13.564;2022-07-01T13:10:33;3.40;;;3.10;;
23472;SDS011;11909;52.516;13.564;2022-07-01T13:13:00;3.15;;;2.85;;
23472;SDS011;11909;52.516;13.564;2022-07-01T13:15:27;6.00;;;2.88;;
23472;SDS011;11909;52.516;13.564;2022-07-01T13:17:54;3.78;;;3.00;;
23472;SDS011;11909;52.516;13.564;2022-07-01T13:20:20;3.25;;;2.83;;
23472;SDS011;11909;52.516;13.564;2022-07-01T13:22:48;3.13;;;2.88;;
23472;SDS011;11909;52.516;13.564;2022-07-01T13:25:15;3.65;;;2.83;;
23472;SDS011;11909;52.516;13.564;2022-07-01T13:27:42;3.63;;;2.30;;
23472;SDS011;11909;52.516;13.564;2022-07-01T13:30:09;2.47;;;2.28;;
23472;SDS011;11909;52.516;13.564;2022-07-01T13:32:37;2.50;;;2.30;;
23472;SDS011;11909;52.516;13.564;2022-07-01T13:35:04;4.03;;;3.08;;
23472;SDS011;11909;52.516;13.564;2022-07-01T13:37:31;3.90;;;2.67;;
23472;SDS011;11909;52.516;13.564;2022-07-01T13:40:00;3.75;;;2.50;;
23472;SDS011;11909;52.516;13.564;2022-07-01T13:42:26;3.13;;;2.80;;
23472;SDS011;11909;52.516;13.564;2022-07-01T13:44:53;2.95;;;2.70;;
23472;SDS011;11909;52.516;13.564;2022-07-01T13:47:20;3.63;;;2.40;;
23472;SDS011;11909;52.516;13.564;2022-07-01T13:49:47;2.45;;;2.25;;
23472;SDS011;11909;52.516;13.564;2022-07-01T13:52:13;3.55;;;2.50;;
23472;SDS011;11909;52.516;13.564;2022-07-01T13:54:41;3.90;;;2.53;;
23472;SDS011;11909;52.516;13.564;2022-07-01T13:57:09;2.40;;;2.20;;
23472;SDS011;11909;52.516;13.564;2022-07-01T13:59:35;2.50;;;2.30;;
23472;SDS011;11909;52.516;13.564;2022-07-01T14:02:02;3.08;;;2.22;;
23472;SDS011;11909;52.516;13.564;2022-07-01T14:04:30;2.47;;;2.25;;
23472;SDS011;11909;52.516;13.564;2022-07-01T14:06:57;3.58;;;2.10;;
23472;SDS011;11909;52.516;13.564;2022-07-01T14:09:23;2.20;;;1.85;;
23472;SDS011;11909;52.516;13.564;2022-07-01T14:11:50;1.88;;;1.77;;
23472;SDS011;11909;52.516;13.564;2022-07-01T14:14:18;2.38;;;2.03;;
23472;SDS011;11909;52.516;13.564;2022-07-01T14:16:44;4.65;;;2.08;;
23472;SDS011;11909;52.516;13.564;2022-07-01T14:19:10;2.35;;;2.13;;
23472;SDS011;11909;52.516;13.564;2022-07-01T14:21:37;2.25;;;2.05;;
23472;SDS011;11909;52.516;13.564;2022-07-01T14:24:04;2.70;;;2.40;;
23472;SDS011;11909;52.516;13.564;2022-07-01T14:26:31;3.88;;;1.98;;